Latest Weather Observations for Kuitpo

IDS60801

Issued at 6:41 am CDT Tuesday 13 November 2018 (issued every 10 minutes, with the page automatically refreshed every 10 minutes)

About weather observations | Map of weather stations | Latest weather observations for SA | Other Formats
Station Details ID: 023887 Name: KUITPO FOREST RESERVE Lat: -35.17 Lon: 138.68 Height: 365.0 m
Data from the previous 72 hours. | See also: Recent months at Kuitpo
Date/Time
CDT
Temp
°C
App
Temp
°C
Dew
Point
°C
Rel
Hum
%
Delta-T
°C
Wind Press
QNH
hPa
Press
MSL
hPa
Rain since
9am
mm
Dir  Spd
km/h
Gust
km/h
Spd
kts
Gust
kts
13/06:30am 17.7 16.5 11.5 67 3.4 SSE 9 11 5 6 1008.8 1007.9 0.0
13/06:00am 17.5 16.6 11.5 68 3.3 SSW 7 11 4 6 1008.8 1007.9 0.0
13/05:30am 17.3 16.2 11.8 70 3.1 S 9 11 5 6 1008.4 1007.5 0.0
13/05:00am 17.0 15.9 12.1 73 2.7 SW 9 15 5 8 1008.7 1007.8 0.0
13/04:30am 17.8 15.9 11.8 68 3.4 W 13 20 7 11 1008.8 1007.9 0.0
13/04:00am 20.5 17.3 8.5 46 6.4 W 15 26 8 14 1008.1 1007.2 0.0
13/03:30am 20.7 17.3 9.3 48 6.2 ENE 17 22 9 12 1007.6 1006.7 0.0
13/03:00am 20.9 17.8 8.9 46 6.5 NE 15 20 8 11 1007.8 1006.9 0.0
13/02:30am 20.7 17.0 9.6 49 6.1 NE 19 26 10 14 1007.9 1007.0 0.0
13/02:00am 20.7 17.4 9.6 49 6.0 NE 17 26 9 14 1008.1 1007.2 0.0
13/01:30am 19.9 17.4 10.9 56 5.0 NE 15 24 8 13 1008.5 1007.6 0.0
13/01:00am 19.6 16.7 11.1 58 4.7 NE 17 26 9 14 1009.0 1008.1 0.0
13/12:30am 19.8 16.5 11.0 57 4.9 NE 19 26 10 14 1009.2 1008.3 0.0
13/12:00am 19.9 17.0 10.9 56 5.0 NE 17 24 9 13 1009.8 1009.0 0.0
 
Date/Time
CDT
Temp
°C
App
Temp
°C
Dew
Point
°C
Rel
Hum
%
Delta-T
°C
Wind Press
QNH
hPa
Press
MSL
hPa
Rain since
9am
mm
Dir  Spd
km/h
Gust
km/h
Spd
kts
Gust
kts
12/11:30pm 20.2 17.7 10.9 55 5.2 NE 15 24 8 13 1010.2 1009.4 0.0
12/11:00pm 20.4 18.7 11.1 55 5.2 NE 11 22 6 12 1010.5 1009.6 0.0
12/10:30pm 22.0 20.9 8.5 42 7.3 SW 4 9 2 5 1011.1 1010.2 0.0
12/10:00pm 20.0 18.2 12.0 60 4.5 ENE 13 24 7 13 1011.3 1010.4 0.0
12/09:30pm 20.6 20.2 11.2 55 5.3 NNW 4 13 2 7 1011.7 1010.9 0.0
12/09:00pm 19.8 19.9 12.6 63 4.1 NNE 4 9 2 5 1011.6 1010.7 0.0
12/08:30pm 19.7 19.4 12.7 64 4.0 NW 6 9 3 5 1011.8 1011.0 0.0
12/08:00pm 19.9 19.6 12.7 63 4.1 ESE 6 11 3 6 1011.5 1010.6 0.0
12/07:30pm 19.9 19.2 13.1 65 3.9 SW 9 13 5 7 1011.9 1011.1 0.0
12/07:00pm 19.8 18.4 13.3 66 3.8 WSW 13 22 7 12 1011.8 1011.0 0.0
12/06:30pm 20.1 18.1 12.8 63 4.2 W 15 26 8 14 1011.1 1010.2 0.0
12/06:00pm 21.2 18.4 12.6 58 5.0 W 19 30 10 16 1010.8 1009.9 0.0
12/05:30pm 24.3 21.4 8.3 36 8.7 WSW 13 20 7 11 1010.6 1009.7 0.0
12/05:00pm 25.0 20.6 7.6 33 9.4 WSW 20 32 11 17 1010.6 1009.7 0.0
12/04:37pm 24.1 18.5 8.9 38 8.3 WSW 28 52 15 28 1010.7 1009.8 0.0
12/04:30pm 24.8 19.8 9.5 38 8.5 WSW 26 44 14 24 1010.6 1009.7 0.0
12/04:11pm 26.2 21.5 9.1 34 9.5 W 24 48 13 26 1010.3 1009.5 0.0
12/04:00pm 30.7 25.1 -3.1 11 15.6 NW 17 30 9 16 1010.1 1009.3 0.0
12/03:30pm 29.6 23.2 -1.7 13 14.7 WNW 22 33 12 18 1010.7 1009.8 0.0
12/03:00pm 30.6 24.7 -2.0 12 15.4 NW 19 32 10 17 1011.1 1010.2 0.0
12/02:30pm 30.1 24.0 -3.6 11 15.4 NW 19 30 10 16 1011.4 1010.5 0.0
12/02:00pm 29.4 23.4 -1.9 13 14.6 NW 20 30 11 16 1011.7 1010.9 0.0
12/01:30pm 30.1 23.1 -3.6 11 15.4 NW 24 41 13 22 1011.8 1011.0 0.0
12/01:00pm 29.9 23.6 -3.7 11 15.3 NW 20 33 11 18 1012.0 1011.2 0.0
12/12:30pm 29.8 23.3 -2.6 12 15.0 NNW 22 37 12 20 1012.4 1011.6 0.0
12/12:00pm 29.5 24.7 0.2 15 14.2 NNW 15 22 8 12 1013.0 1012.2 0.0
12/11:30am 28.0 22.8 -0.1 16 13.4 NNW 17 28 9 15 1013.1 1012.3 0.0
12/11:00am 27.8 23.4 0.5 17 13.2 N 13 28 7 15 1013.2 1012.4 0.0
12/10:30am 27.8 23.0 0.5 17 13.2 N 15 30 8 16 1013.1 1012.3 0.0
12/10:00am 25.2 21.8 3.8 25 10.8 N 11 19 6 10 1013.4 1012.5 0.0
12/09:30am 24.0 21.3 5.4 30 9.6 NNE 9 15 5 8 1013.5 1012.6 0.0
12/09:00am 22.4 19.1 4.5 31 9.0 NNE 11 17 6 9 1013.5 1012.6 0.2
12/08:30am 21.4 17.5 3.6 31 8.7 NNE 13 22 7 12 1013.1 1012.3 0.2
12/08:00am 20.8 16.3 2.1 29 8.8 NE 15 20 8 11 1012.9 1012.1 0.2
12/07:30am 19.8 15.7 2.2 31 8.3 NE 13 20 7 11 1012.9 1012.1 0.2
12/07:00am 20.3 16.4 1.2 28 8.8 NE 11 19 6 10 1012.7 1011.9 0.2
12/06:30am 19.2 15.5 2.1 32 8.0 NNE 11 20 6 11 1012.6 1011.8 0.2
12/06:00am 19.1 15.3 2.0 32 8.0 NE 11 17 6 9 1012.4 1011.6 0.2
12/05:30am 19.0 15.3 2.4 33 7.8 NNE 11 15 6 8 1012.2 1011.4 0.2
12/05:00am 19.1 15.0 2.5 33 7.8 NE 13 19 7 10 1012.2 1011.4 0.2
12/04:30am 18.4 14.1 3.5 37 7.1 NE 15 24 8 13 1012.3 1011.5 0.2
12/04:00am 18.1 13.2 4.3 40 6.7 NE 19 26 10 14 1012.2 1011.4 0.2
12/03:30am 17.5 12.8 5.1 44 6.1 NE 19 28 10 15 1012.4 1011.6 0.2
12/03:00am 17.5 12.8 5.1 44 6.1 NE 19 24 10 13 1012.5 1011.7 0.2
12/02:30am 18.3 13.9 4.8 41 6.6 ENE 17 24 9 13 1013.0 1012.2 0.2
12/02:00am 19.2 14.6 3.8 36 7.4 ENE 17 20 9 11 1013.6 1012.7 0.2
12/01:30am 19.7 15.2 4.2 36 7.6 ENE 17 24 9 13 1014.1 1013.3 0.2
12/01:00am 19.8 14.9 4.3 36 7.6 ENE 19 26 10 14 1014.5 1013.7 0.2
12/12:30am 20.3 15.2 3.9 34 8.0 E 20 30 11 16 1014.9 1014.1 0.2
12/12:00am 20.4 15.3 3.2 32 8.3 E 19 26 10 14 1015.0 1014.2 0.2
 
Date/Time
CDT
Temp
°C
App
Temp
°C
Dew
Point
°C
Rel
Hum
%
Delta-T
°C
Wind Press
QNH
hPa
Press
MSL
hPa
Rain since
9am
mm
Dir  Spd
km/h
Gust
km/h
Spd
kts
Gust
kts
11/11:30pm 20.8 14.6 2.1 29 8.8 E 24 35 13 19 1015.4 1014.6 0.2
11/11:00pm 20.9 15.2 2.7 30 8.7 ESE 22 35 12 19 1015.7 1014.9 0.2
11/10:30pm 20.3 15.0 3.1 32 8.2 ESE 20 26 11 14 1015.9 1015.1 0.2
11/10:00pm 19.4 15.1 5.1 39 7.1 ESE 17 22 9 12 1016.0 1015.2 0.2
11/09:30pm 19.1 15.4 6.2 43 6.5 SE 15 20 8 11 1015.8 1015.0 0.2
11/09:00pm 19.0 15.5 7.1 46 6.1 SE 15 22 8 12 1015.6 1014.8 0.2
11/08:30pm 19.7 16.2 7.1 44 6.5 SE 15 20 8 11 1015.3 1014.5 0.2
11/08:00pm 20.2 17.2 7.6 44 6.6 SE 13 20 7 11 1015.1 1014.3 0.2
11/07:30pm 21.3 18.6 7.5 41 7.2 SE 11 15 6 8 1015.0 1014.2 0.2
11/07:00pm 22.9 19.4 7.4 37 8.2 SE 15 24 8 13 1014.7 1013.9 0.2
11/06:30pm 24.1 21.2 8.1 36 8.6 ESE 13 20 7 11 1014.7 1013.9 0.2
11/06:00pm 24.8 21.3 7.4 33 9.3 SE 15 22 8 12 1014.6 1013.8 0.2
11/05:30pm 26.3 23.7 7.8 31 10.1 ESE 11 20 6 11 1014.5 1013.7 0.2
11/05:00pm 27.7 24.1 0.5 17 13.1 NW 9 20 5 11 1014.8 1014.0 0.2
11/04:30pm 27.5 23.4 -0.5 16 13.2 WNW 11 19 6 10 1015.0 1014.2 0.2
11/04:00pm 27.5 23.7 -0.5 16 13.2 NNE 9 15 5 8 1015.3 1014.5 0.2
11/03:30pm 27.7 23.6 -0.4 16 13.3 NW 11 20 6 11 1015.7 1014.9 0.2
11/03:00pm 27.1 22.3 0.0 17 12.9 WSW 15 24 8 13 1016.0 1015.2 0.2
11/02:30pm 26.4 23.1 2.3 21 11.9 W 9 20 5 11 1016.3 1015.4 0.2
11/02:00pm 26.2 22.4 1.5 20 12.0 NW 11 17 6 9 1016.6 1015.8 0.2
11/01:30pm 25.4 21.9 3.4 24 11.0 NW 11 20 6 11 1017.0 1016.2 0.2
11/01:00pm 25.8 22.1 2.5 22 11.5 N 11 20 6 11 1017.2 1016.4 0.2
11/12:30pm 25.1 20.9 1.9 22 11.2 NNW 13 20 7 11 1017.6 1016.8 0.0
11/12:00pm 24.7 21.4 4.5 27 10.2 NNW 11 19 6 10 1018.0 1017.2 0.0
11/11:30am 23.6 21.4 7.7 36 8.5 NE 9 15 5 8 1018.2 1017.4 0.0
11/11:00am 22.9 20.0 6.6 35 8.5 NE 11 17 6 9 1018.4 1017.6 0.0
11/10:30am 21.9 18.6 8.1 41 7.3 ENE 15 22 8 12 1018.5 1017.7 0.0
11/10:00am 20.6 17.4 8.6 46 6.4 NE 15 22 8 12 1018.6 1017.8 0.0
11/09:30am 18.9 15.9 9.4 54 5.1 ENE 15 20 8 11 1018.7 1018.0 0.0
11/09:00am 16.8 13.4 9.2 61 4.0 NE 17 26 9 14 1018.7 1018.0 0.0
11/08:30am 15.4 12.1 9.7 69 3.0 ENE 17 28 9 15 1018.6 1017.8 0.0
11/08:00am 13.5 9.3 9.6 77 2.0 ENE 22 30 12 16 1018.8 1018.1 0.0
11/07:30am 12.1 7.5 9.7 85 1.2 ENE 24 30 13 16 1018.9 1018.2 0.0
11/07:00am 10.8 6.5 9.2 90 0.8 ENE 22 30 12 16 1018.8 1018.1 0.0
11/06:30am 10.4 6.5 9.3 93 0.6 ENE 20 30 11 16 1018.5 1017.7 0.0
11/06:00am 10.0 6.0 9.1 94 0.5 ENE 20 28 11 15 1018.3 1017.5 0.0
11/05:30am 9.8 6.0 9.0 95 0.4 ENE 19 24 10 13 1017.9 1017.1 0.0
11/05:00am 10.0 6.3 9.4 96 0.3 ENE 19 26 10 14 1017.6 1016.8 0.0
11/04:30am 10.3 6.4 9.5 95 0.4 ENE 20 32 11 17 1017.6 1016.8 0.0
11/04:00am 10.5 6.6 9.6 94 0.5 ENE 20 26 11 14 1017.7 1016.9 0.0
11/03:30am 10.4 6.5 9.5 94 0.5 ENE 20 28 11 15 1017.8 1017.0 0.0
11/03:00am 10.6 6.8 9.7 94 0.5 E 20 26 11 14 1017.9 1017.1 0.0
11/02:30am 10.8 7.0 9.9 94 0.5 E 20 24 11 13 1018.2 1017.4 0.0
11/02:00am 10.9 7.3 9.8 93 0.6 E 19 24 10 13 1018.4 1017.6 0.0
11/01:30am 10.9 7.3 9.8 93 0.6 ESE 19 24 10 13 1018.4 1017.6 0.0
11/01:00am 10.8 7.0 9.7 93 0.6 ESE 20 26 11 14 1018.5 1017.7 0.0
11/12:30am 10.9 7.5 9.3 90 0.8 ESE 17 24 9 13 1018.8 1018.1 0.0
11/12:00am 11.2 7.3 9.6 90 0.8 ESE 20 28 11 15 1018.8 1018.1 0.0
 
Date/Time
CDT
Temp
°C
App
Temp
°C
Dew
Point
°C
Rel
Hum
%
Delta-T
°C
Wind Press
QNH
hPa
Press
MSL
hPa
Rain since
9am
mm
Dir  Spd
km/h
Gust
km/h
Spd
kts
Gust
kts
10/11:30pm 11.3 7.7 9.9 91 0.7 ESE 19 26 10 14 1018.9 1018.2 0.0
10/11:00pm 11.6 8.4 9.9 89 0.9 ESE 17 22 9 12 1019.3 1018.5 0.0
10/10:30pm 11.9 8.3 9.8 87 1.1 SE 19 26 10 14 1019.3 1018.5 0.0
10/10:00pm 12.1 8.8 9.7 85 1.2 SE 17 24 9 13 1019.2 1018.4 0.0
10/09:30pm 12.4 9.2 9.8 84 1.3 SE 17 28 9 15 1018.9 1018.2 0.0
10/09:00pm 12.6 9.4 9.8 83 1.5 SSE 17 30 9 16 1018.4 1017.6 0.0
10/08:30pm 13.1 9.4 9.5 79 1.9 SE 19 32 10 17 1018.1 1017.3 0.0
10/08:00pm 14.1 11.3 8.5 69 2.9 SE 13 20 7 11 1017.9 1017.1 0.0
10/07:30pm 15.5 13.1 8.5 63 3.6 SE 11 19 6 10 1017.8 1017.0 0.0
10/07:00pm 17.7 15.5 7.7 52 5.2 SSE 9 17 5 9 1017.7 1016.9 0.0
10/06:30pm 20.3 16.4 1.2 28 8.8 SW 11 19 6 10 1017.4 1016.6 0.0
10/06:00pm 20.5 16.3 1.9 29 8.7 WSW 13 20 7 11 1017.4 1016.6 0.0
10/05:30pm 20.6 15.7 -0.7 24 9.5 SW 15 22 8 12 1017.4 1016.6 0.0
10/05:00pm 20.9 16.3 -1.0 23 9.7 WSW 13 20 7 11 1017.5 1016.7 0.0
10/04:30pm 21.6 17.6 0.2 24 9.8 WSW 11 20 6 11 1017.4 1016.6 0.0
10/04:00pm 21.4 17.0 0.6 25 9.6 SW 13 17 7 9 1017.5 1016.7 0.0
10/03:30pm 21.2 17.1 2.0 28 9.1 W 13 24 7 13 1017.7 1016.9 0.0
10/03:00pm 21.1 16.5 1.4 27 9.2 WSW 15 22 8 12 1017.8 1017.0 0.0
10/02:30pm 21.1 17.0 2.4 29 8.9 SW 13 22 7 12 1017.8 1017.0 0.0
10/02:00pm 21.2 17.4 3.9 32 8.5 WSW 13 20 7 11 1018.0 1017.2 0.0
10/01:30pm 20.2 16.1 2.1 30 8.5 WNW 13 20 7 11 1018.1 1017.3 0.0
10/01:00pm 20.2 15.9 3.0 32 8.2 WSW 15 22 8 12 1018.2 1017.4 0.0
10/12:30pm 19.4 15.8 2.7 33 7.9 WSW 11 20 6 11 1018.4 1017.6 0.0
10/12:00pm 19.3 15.1 1.8 31 8.1 WNW 13 20 7 11 1018.8 1018.1 0.0
10/11:30am 18.9 15.2 4.3 38 7.1 WNW 13 20 7 11 1019.4 1018.6 0.0
10/11:00am 18.4 15.4 7.8 50 5.5 WNW 13 20 7 11 1019.5 1018.7 0.0
10/10:30am 17.5 14.8 7.3 51 5.2 WSW 11 19 6 10 1019.5 1018.7 0.0
10/10:00am 16.3 13.7 7.8 57 4.4 WNW 11 17 6 9 1019.5 1018.7 0.0
10/09:30am 15.1 12.5 7.9 62 3.7 W 11 15 6 8 1019.5 1018.7 0.0
10/09:00am 14.2 12.8 8.8 70 2.8 NW 6 7 3 4 1019.3 1018.5 0.0
10/08:30am 13.1 11.2 9.0 76 2.1 NE 9 13 5 7 1019.3 1018.5 0.0
10/08:00am 11.2 9.1 9.8 91 0.7 NE 11 17 6 9 1018.9 1018.2 0.0
10/07:30am 9.9 7.3 9.3 96 0.3 ENE 13 19 7 10 1018.6 1017.8 0.0
10/07:00am 9.2 7.2 8.7 97 0.2 NE 9 15 5 8 1018.2 1017.4 0.0

Other Formats:

Comma delimited format used in spreadsheet applications
http://www.bom.gov.au/fwo/IDS60801/IDS60801.94683.axf

JavaScript Object Notation format (JSON) in row-major order
http://www.bom.gov.au/fwo/IDS60801/IDS60801.94683.json